createdAt,value
2019-06-20T00:01:53.703Z,13.35
2019-06-20T00:04:20.461Z,12.33
2019-06-20T00:06:47.358Z,13.35
2019-06-20T00:09:14.274Z,12.07
2019-06-20T00:11:41.102Z,11.45
2019-06-20T00:14:07.906Z,11.03
2019-06-20T00:16:34.631Z,9.85
2019-06-20T00:19:01.431Z,10.18
2019-06-20T00:21:28.546Z,8.80
2019-06-20T00:23:55.317Z,9.93
2019-06-20T00:26:22.059Z,9.33
2019-06-20T00:28:48.800Z,12.82
2019-06-20T00:31:15.546Z,9.65
2019-06-20T00:33:42.280Z,10.28
2019-06-20T00:36:09.130Z,9.13
2019-06-20T00:38:35.931Z,10.40
2019-06-20T00:41:02.867Z,9.50
2019-06-20T00:43:29.570Z,9.50
2019-06-20T00:45:56.386Z,11.73
2019-06-20T00:48:23.300Z,8.90
2019-06-20T00:50:50.030Z,11.63
2019-06-20T00:53:16.735Z,8.53
2019-06-20T00:55:43.535Z,10.30
2019-06-20T00:58:10.410Z,8.88
2019-06-20T01:00:37.319Z,9.13
2019-06-20T01:03:04.348Z,9.48
2019-06-20T01:05:31.059Z,9.23
2019-06-20T01:07:57.784Z,12.03
2019-06-20T01:10:24.502Z,8.58
2019-06-20T01:12:51.322Z,7.62
2019-06-20T01:15:18.141Z,8.58
2019-06-20T01:20:20.797Z,11.50
2019-06-20T01:22:47.610Z,11.00
2019-06-20T01:25:16.753Z,9.10
2019-06-20T01:27:43.593Z,9.05
2019-06-20T01:30:11.731Z,7.78
2019-06-20T01:32:38.535Z,8.78
2019-06-20T01:35:08.731Z,8.78
2019-06-20T01:37:35.849Z,8.85
2019-06-20T01:40:04.769Z,9.38
2019-06-20T01:42:31.574Z,7.95
2019-06-20T01:44:58.451Z,10.45
2019-06-20T01:47:25.226Z,13.50
2019-06-20T01:49:51.961Z,10.48
2019-06-20T01:52:18.845Z,8.90
2019-06-20T01:54:45.591Z,7.40
2019-06-20T01:57:12.390Z,11.18
2019-06-20T01:59:39.166Z,7.55
2019-06-20T02:02:06.091Z,7.33
2019-06-20T02:04:32.931Z,12.20
2019-06-20T02:06:59.803Z,11.50
2019-06-20T02:09:26.810Z,7.20
2019-06-20T02:11:53.565Z,7.67
2019-06-20T02:14:20.367Z,8.23
2019-06-20T02:16:47.385Z,7.08
2019-06-20T02:19:14.399Z,9.03
2019-06-20T02:21:41.238Z,9.80
2019-06-20T02:24:08.088Z,8.38
2019-06-20T02:26:34.888Z,10.05
2019-06-20T02:29:01.953Z,10.82
2019-06-20T02:31:28.814Z,7.87
2019-06-20T02:33:55.643Z,7.37
2019-06-20T02:36:22.556Z,7.80
2019-06-20T02:38:49.376Z,8.23
2019-06-20T02:41:16.292Z,7.45
2019-06-20T02:43:43.197Z,7.67
2019-06-20T02:46:10.319Z,9.55
2019-06-20T02:48:37.124Z,8.03
2019-06-20T02:51:04.147Z,7.30
2019-06-20T02:53:30.958Z,7.67
2019-06-20T02:55:57.807Z,10.85
2019-06-20T02:58:24.653Z,7.62
2019-06-20T03:00:56.566Z,8.08
2019-06-20T03:03:25.651Z,7.80
2019-06-20T03:05:52.712Z,7.75
2019-06-20T03:08:19.613Z,7.35
2019-06-20T03:10:46.533Z,9.28
2019-06-20T03:13:13.435Z,8.00
2019-06-20T03:15:40.487Z,7.90
2019-06-20T03:18:07.217Z,9.08
2019-06-20T03:20:34.030Z,6.67
2019-06-20T03:23:00.932Z,8.98
2019-06-20T03:25:28.221Z,7.58
2019-06-20T03:27:54.936Z,9.95
2019-06-20T03:30:22.047Z,7.30
2019-06-20T03:32:49.057Z,8.15
2019-06-20T03:35:15.978Z,8.00
2019-06-20T03:37:42.700Z,8.30
2019-06-20T03:40:10.207Z,12.68
2019-06-20T03:42:37.018Z,7.08
2019-06-20T03:45:05.425Z,8.73
2019-06-20T03:47:32.339Z,7.37
2019-06-20T03:49:59.142Z,7.20
2019-06-20T03:52:25.907Z,7.37
2019-06-20T03:54:52.717Z,7.83
2019-06-20T03:57:19.431Z,8.70
2019-06-20T03:59:46.273Z,7.80
2019-06-20T04:02:13.117Z,10.20
2019-06-20T04:04:40.157Z,18.15
2019-06-20T04:07:07.087Z,12.82
2019-06-20T04:09:33.824Z,11.60
2019-06-20T04:12:00.560Z,9.45
2019-06-20T04:14:27.772Z,9.05
2019-06-20T04:16:54.507Z,9.13
2019-06-20T04:19:21.217Z,11.22
2019-06-20T04:21:47.927Z,10.78
2019-06-20T04:24:14.753Z,9.53
2019-06-20T04:26:41.462Z,10.15
2019-06-20T04:29:08.169Z,8.95
2019-06-20T04:31:34.926Z,11.70
2019-06-20T04:34:01.695Z,10.15
2019-06-20T04:36:28.638Z,8.68
2019-06-20T04:38:55.451Z,10.18
2019-06-20T04:41:22.379Z,8.53
2019-06-20T04:43:49.118Z,7.25
2019-06-20T04:46:23.625Z,7.83
2019-06-20T04:48:50.346Z,9.33
2019-06-20T04:51:17.041Z,6.87
2019-06-20T04:53:43.761Z,7.08
2019-06-20T04:56:10.582Z,7.92
2019-06-20T04:58:37.403Z,7.35
2019-06-20T05:01:04.315Z,7.95
2019-06-20T05:03:31.133Z,7.35
2019-06-20T05:05:57.941Z,7.85
2019-06-20T05:08:24.762Z,8.20
2019-06-20T05:10:51.602Z,9.65
2019-06-20T05:13:18.469Z,8.08
2019-06-20T05:15:52.421Z,7.28
2019-06-20T05:18:14.206Z,9.10
2019-06-20T05:20:41.040Z,7.55
2019-06-20T05:23:07.747Z,7.58
2019-06-20T05:25:34.650Z,7.90
2019-06-20T05:28:01.666Z,6.95
2019-06-20T05:30:28.837Z,7.75
2019-06-20T05:32:55.643Z,6.45
2019-06-20T05:35:22.343Z,7.47
2019-06-20T05:37:49.066Z,7.78
2019-06-20T05:40:16.003Z,6.50
2019-06-20T05:42:42.819Z,7.15
2019-06-20T05:45:10.383Z,9.30
2019-06-20T05:47:37.201Z,7.05
2019-06-20T05:50:07.013Z,7.33
2019-06-20T05:52:33.751Z,6.33
2019-06-20T05:55:00.458Z,8.55
2019-06-20T05:57:27.270Z,7.12
2019-06-20T05:59:54.175Z,7.33
2019-06-20T06:02:20.957Z,7.25
2019-06-20T06:04:47.874Z,6.75
2019-06-20T06:07:14.579Z,5.75
2019-06-20T06:09:41.430Z,6.83
2019-06-20T06:12:08.414Z,6.35
2019-06-20T06:14:35.260Z,5.87
2019-06-20T06:17:02.161Z,6.33
2019-06-20T06:19:28.941Z,7.75
2019-06-20T06:21:55.673Z,7.30
2019-06-20T06:24:22.490Z,6.95
2019-06-20T06:26:49.190Z,6.45
2019-06-20T06:29:16.020Z,6.28
2019-06-20T06:31:42.824Z,7.75
2019-06-20T06:34:09.883Z,5.87
2019-06-20T06:36:36.579Z,5.97
2019-06-20T06:39:07.699Z,7.12
2019-06-20T06:41:34.530Z,8.48
2019-06-20T06:44:01.476Z,7.40
2019-06-20T06:46:42.844Z,7.15
2019-06-20T06:48:56.918Z,7.92
2019-06-20T06:51:23.616Z,8.35
2019-06-20T06:53:50.450Z,9.08
2019-06-20T06:56:17.287Z,8.45
2019-06-20T06:58:43.994Z,7.45
2019-06-20T07:01:10.904Z,8.15
2019-06-20T07:03:37.639Z,9.33
2019-06-20T07:06:04.530Z,7.80
2019-06-20T07:08:31.426Z,7.75
2019-06-20T07:10:58.415Z,8.05
2019-06-20T07:13:25.158Z,7.33
2019-06-20T07:15:51.872Z,7.20
2019-06-20T07:18:18.897Z,6.53
2019-06-20T07:20:45.735Z,7.47
2019-06-20T07:23:12.586Z,7.87
2019-06-20T07:25:39.317Z,5.50
2019-06-20T07:28:06.025Z,5.60
2019-06-20T07:30:32.734Z,5.50
2019-06-20T07:32:59.573Z,6.60
2019-06-20T07:35:26.331Z,7.47
2019-06-20T07:37:53.081Z,5.08
2019-06-20T07:40:20.422Z,4.85
2019-06-20T07:42:47.426Z,4.20
2019-06-20T07:45:15.099Z,4.58
2019-06-20T07:47:41.999Z,4.80
2019-06-20T07:50:09.873Z,4.90
2019-06-20T07:52:36.772Z,6.28
2019-06-20T07:55:08.270Z,5.20
2019-06-20T07:57:34.986Z,5.70
2019-06-20T08:00:09.760Z,5.70
2019-06-20T08:02:36.774Z,5.47
2019-06-20T08:05:06.019Z,7.17
2019-06-20T08:07:32.846Z,7.35
2019-06-20T08:09:59.724Z,6.22
2019-06-20T08:12:26.505Z,9.50
2019-06-20T08:14:53.269Z,5.20
2019-06-20T08:17:34.325Z,5.85
2019-06-20T08:19:48.619Z,8.48
2019-06-20T08:22:15.395Z,8.43
2019-06-20T08:24:42.340Z,5.87
2019-06-20T08:27:09.141Z,6.35
2019-06-20T08:29:35.969Z,5.45
2019-06-20T08:32:02.928Z,5.72
2019-06-20T08:34:29.966Z,5.85
2019-06-20T08:36:57.805Z,6.45
2019-06-20T08:39:29.187Z,7.03
2019-06-20T08:41:55.438Z,5.00
2019-06-20T08:44:22.486Z,5.95
2019-06-20T08:46:49.335Z,6.22
2019-06-20T08:49:16.193Z,6.05
2019-06-20T08:51:42.908Z,5.87
2019-06-20T08:54:09.716Z,8.43
2019-06-20T08:56:36.959Z,5.92
2019-06-20T08:59:04.890Z,6.55
2019-06-20T09:01:31.932Z,6.15
2019-06-20T09:03:58.739Z,7.12
2019-06-20T09:06:26.090Z,5.62
2019-06-20T09:08:53.855Z,6.50
2019-06-20T09:11:21.870Z,7.72
2019-06-20T09:13:48.680Z,6.55
2019-06-20T09:16:24.351Z,5.65
2019-06-20T09:18:44.139Z,5.60
2019-06-20T09:21:11.150Z,5.33
2019-06-20T09:23:37.882Z,5.97
2019-06-20T09:26:04.724Z,5.87
2019-06-20T09:28:31.534Z,4.92
2019-06-20T09:30:59.225Z,5.95
2019-06-20T09:33:26.344Z,5.10
2019-06-20T09:35:53.991Z,5.10
2019-06-20T09:38:23.455Z,5.10
2019-06-20T09:40:51.915Z,4.95
2019-06-20T09:43:27.707Z,4.40
2019-06-20T09:45:48.090Z,4.60
2019-06-20T09:48:14.919Z,4.12
2019-06-20T09:50:41.787Z,5.00
2019-06-20T09:53:08.479Z,4.53
2019-06-20T09:55:35.414Z,4.15
2019-06-20T09:58:02.426Z,3.85
2019-06-20T10:00:29.850Z,3.55
2019-06-20T10:02:57.821Z,3.92
2019-06-20T10:05:25.306Z,3.30
2019-06-20T10:07:52.345Z,4.30
2019-06-20T10:10:27.819Z,3.70
2019-06-20T10:12:55.869Z,3.77
2019-06-20T10:15:27.597Z,5.45
2019-06-20T10:17:54.709Z,4.83
2019-06-20T10:20:22.543Z,4.90
2019-06-20T10:22:49.384Z,4.35
2019-06-20T10:25:16.498Z,4.45
2019-06-20T10:27:44.848Z,6.83
2019-06-20T10:30:14.537Z,4.58
2019-06-20T10:32:41.720Z,4.90
2019-06-20T10:35:09.995Z,4.40
2019-06-20T10:37:36.919Z,5.15
2019-06-20T10:40:07.630Z,4.87
2019-06-20T10:42:34.481Z,5.80
2019-06-20T10:45:01.976Z,4.78
2019-06-20T10:47:35.000Z,5.33
2019-06-20T10:49:57.883Z,5.50
2019-06-20T10:52:24.757Z,5.30
2019-06-20T10:54:51.703Z,6.35
2019-06-20T10:57:18.556Z,5.28
2019-06-20T10:59:46.519Z,5.70
2019-06-20T11:02:13.543Z,4.42
2019-06-20T11:04:41.105Z,4.87
2019-06-20T11:07:09.266Z,5.30
2019-06-20T11:09:36.194Z,5.22
2019-06-20T11:12:03.223Z,5.17
2019-06-20T11:14:29.931Z,4.78
2019-06-20T11:16:57.555Z,5.40
2019-06-20T11:19:24.268Z,7.03
2019-06-20T11:21:50.992Z,7.00
2019-06-20T11:24:17.910Z,9.88
2019-06-20T11:26:46.009Z,12.65
2019-06-20T11:29:12.869Z,9.85
2019-06-20T11:31:44.232Z,9.23
2019-06-20T11:34:08.337Z,8.30
2019-06-20T11:36:36.989Z,6.90
2019-06-20T11:39:06.299Z,7.37
2019-06-20T11:41:33.132Z,7.28
2019-06-20T11:43:59.840Z,9.83
2019-06-20T11:46:26.707Z,8.70
2019-06-20T11:48:53.473Z,9.53
2019-06-20T11:51:20.505Z,5.55
2019-06-20T11:53:47.472Z,5.30
2019-06-20T11:56:14.199Z,4.97
2019-06-20T11:58:40.919Z,5.22
2019-06-20T12:01:07.659Z,7.35
2019-06-20T12:03:34.380Z,5.85
2019-06-20T12:06:01.088Z,4.20
2019-06-20T12:08:27.830Z,7.42
2019-06-20T12:10:54.767Z,8.10
2019-06-20T12:13:21.587Z,7.20
2019-06-20T12:15:49.000Z,9.50
2019-06-20T12:18:16.014Z,8.83
2019-06-20T12:20:42.951Z,7.08
2019-06-20T12:23:10.029Z,7.33
2019-06-20T12:25:39.092Z,6.60
2019-06-20T12:28:06.006Z,7.30
2019-06-20T12:30:32.882Z,7.22
2019-06-20T12:32:59.714Z,7.22
2019-06-20T12:35:26.678Z,7.35
2019-06-20T12:37:53.497Z,7.70
2019-06-20T12:40:20.704Z,5.87
2019-06-20T12:42:47.454Z,4.62
2019-06-20T12:45:14.867Z,4.25
2019-06-20T12:47:42.015Z,10.53
2019-06-20T12:50:09.258Z,3.87
2019-06-20T12:52:37.624Z,3.90
2019-06-20T12:55:05.129Z,5.25
2019-06-20T12:57:32.042Z,6.53
2019-06-20T12:59:58.865Z,6.45
2019-06-20T13:02:25.856Z,4.90
2019-06-20T13:04:52.793Z,5.25
2019-06-20T13:07:19.532Z,5.45
2019-06-20T13:09:46.407Z,5.45
2019-06-20T13:12:13.350Z,7.85
2019-06-20T13:14:40.887Z,8.15
2019-06-20T13:17:07.813Z,6.37
2019-06-20T13:19:34.518Z,6.22
2019-06-20T13:22:01.250Z,5.92
2019-06-20T13:24:27.957Z,6.47
2019-06-20T13:26:54.733Z,6.20
2019-06-20T13:29:21.485Z,5.72
2019-06-20T13:32:01.679Z,7.25
2019-06-20T13:34:16.834Z,6.30
2019-06-20T13:36:44.747Z,7.12
2019-06-20T13:39:11.764Z,7.22
2019-06-20T13:41:41.214Z,7.30
2019-06-20T13:44:08.173Z,7.17
2019-06-20T13:46:35.117Z,6.58
2019-06-20T13:49:02.036Z,7.10
2019-06-20T13:51:28.929Z,8.13
2019-06-20T13:53:55.888Z,7.12
2019-06-20T13:56:23.037Z,5.90
2019-06-20T13:58:51.235Z,6.35
2019-06-20T14:01:18.309Z,6.75
2019-06-20T14:03:45.694Z,7.10
2019-06-20T14:06:13.914Z,7.85
2019-06-20T14:08:42.366Z,7.25
2019-06-20T14:11:09.370Z,8.63
2019-06-20T14:13:36.323Z,7.00
2019-06-20T14:16:03.372Z,8.43
2019-06-20T14:18:30.225Z,8.53
2019-06-20T14:20:57.046Z,7.17
2019-06-20T14:23:23.887Z,7.08
2019-06-20T14:25:51.731Z,8.78
2019-06-20T14:28:18.874Z,6.92
2019-06-20T14:30:46.548Z,6.50
2019-06-20T14:33:13.888Z,7.03
2019-06-20T14:35:43.497Z,6.75
2019-06-20T14:38:09.507Z,7.00
2019-06-20T14:40:36.488Z,8.38
2019-06-20T14:43:03.325Z,6.90
2019-06-20T14:45:30.171Z,6.70
2019-06-20T14:47:57.058Z,7.62
2019-06-20T14:50:23.983Z,8.68
2019-06-20T14:52:52.193Z,7.67
2019-06-20T14:55:19.880Z,7.20
2019-06-20T14:57:48.418Z,7.28
2019-06-20T15:00:16.973Z,7.47
2019-06-20T15:02:45.762Z,7.55
2019-06-20T15:05:17.939Z,7.10
2019-06-20T15:07:46.726Z,6.62
2019-06-20T15:10:14.505Z,7.60
2019-06-20T15:12:41.548Z,7.33
2019-06-20T15:15:08.956Z,6.95
2019-06-20T15:17:35.862Z,7.45
2019-06-20T15:20:06.461Z,7.03
2019-06-20T15:22:33.284Z,8.45
2019-06-20T15:25:00.098Z,7.90
2019-06-20T15:27:26.852Z,7.20
2019-06-20T15:29:54.411Z,7.03
2019-06-20T15:32:22.242Z,8.33
2019-06-20T15:34:49.443Z,8.53
2019-06-20T15:37:16.304Z,7.70
2019-06-20T15:39:43.042Z,7.37
2019-06-20T15:42:09.752Z,7.67
2019-06-20T15:44:36.483Z,7.65
2019-06-20T15:47:03.405Z,8.30
2019-06-20T15:49:30.215Z,7.85
2019-06-20T15:51:59.166Z,8.00
2019-06-20T15:54:26.309Z,8.98
2019-06-20T15:56:53.247Z,7.28
2019-06-20T15:59:20.328Z,7.10
2019-06-20T16:01:47.017Z,10.82
2019-06-20T16:04:13.779Z,8.70
2019-06-20T16:06:40.575Z,8.58
2019-06-20T16:09:09.076Z,9.20
2019-06-20T16:11:36.553Z,7.87
2019-06-20T16:14:03.421Z,7.50
2019-06-20T16:16:30.106Z,8.05
2019-06-20T16:18:56.995Z,7.97
2019-06-20T16:21:23.825Z,8.23
2019-06-20T16:23:50.719Z,8.13
2019-06-20T16:26:17.369Z,10.15
2019-06-20T16:28:44.162Z,9.33
2019-06-20T16:31:25.906Z,7.85
2019-06-20T16:33:39.648Z,8.63
2019-06-20T16:36:06.422Z,6.92
2019-06-20T16:38:33.311Z,6.95
2019-06-20T16:40:59.999Z,9.08
2019-06-20T16:43:26.801Z,7.05
2019-06-20T16:45:53.451Z,7.17
2019-06-20T16:48:20.261Z,7.53
2019-06-20T16:50:47.073Z,8.25
2019-06-20T16:53:13.819Z,8.08
2019-06-20T16:55:40.812Z,8.65
2019-06-20T16:58:07.940Z,7.90
2019-06-20T17:00:34.957Z,6.90
2019-06-20T17:03:01.833Z,6.90
2019-06-20T17:05:28.705Z,7.35
2019-06-20T17:07:55.467Z,7.70
2019-06-20T17:10:24.230Z,10.03
2019-06-20T17:12:51.122Z,8.53
2019-06-20T17:15:18.918Z,9.23
2019-06-20T17:17:45.812Z,8.85
2019-06-20T17:20:13.571Z,9.53
2019-06-20T17:22:42.278Z,8.78
2019-06-20T17:25:09.660Z,9.13
2019-06-20T17:27:36.427Z,7.37
2019-06-20T17:30:11.811Z,8.65
2019-06-20T17:32:38.942Z,8.93
2019-06-20T17:35:07.015Z,9.33
2019-06-20T17:37:34.087Z,9.30
2019-06-20T17:40:00.791Z,7.75
2019-06-20T17:42:27.700Z,6.97
2019-06-20T17:44:54.365Z,8.08
2019-06-20T17:47:21.289Z,7.42
2019-06-20T17:49:48.140Z,5.62
2019-06-20T17:52:15.019Z,7.12
2019-06-20T17:54:41.783Z,8.05
2019-06-20T17:57:08.555Z,5.90
2019-06-20T17:59:35.241Z,5.03
2019-06-20T18:02:02.063Z,6.28
2019-06-20T18:04:28.752Z,6.33
2019-06-20T18:06:55.449Z,7.42
2019-06-20T18:09:22.303Z,6.85
2019-06-20T18:11:49.085Z,8.40
2019-06-20T18:14:15.773Z,6.85
2019-06-20T18:16:42.633Z,6.42
2019-06-20T18:19:09.416Z,5.78
2019-06-20T18:21:36.343Z,9.10
2019-06-20T18:24:03.302Z,6.70
2019-06-20T18:26:30.010Z,8.05
2019-06-20T18:28:56.709Z,8.20
2019-06-20T18:31:23.423Z,8.75
2019-06-20T18:33:50.429Z,7.62
2019-06-20T18:36:17.326Z,7.42
2019-06-20T18:38:44.006Z,8.00
2019-06-20T18:41:10.673Z,9.80
2019-06-20T18:43:37.514Z,7.35
2019-06-20T18:46:04.306Z,23.55
2019-06-20T18:48:32.094Z,11.08
2019-06-20T18:50:59.056Z,9.93
2019-06-20T18:53:45.097Z,9.65
2019-06-20T18:56:11.868Z,6.40
2019-06-20T18:58:38.549Z,7.00
2019-06-20T19:01:05.399Z,5.37
2019-06-20T19:03:32.206Z,9.53
2019-06-20T19:05:58.999Z,5.67
2019-06-20T19:08:25.736Z,7.22
2019-06-20T19:10:52.536Z,5.50
2019-06-20T19:13:19.348Z,6.15
2019-06-20T19:15:46.146Z,5.78
2019-06-20T19:18:12.912Z,37.35
2019-06-20T19:20:39.887Z,12.65
2019-06-20T19:23:06.760Z,12.70
2019-06-20T19:25:33.662Z,13.48
2019-06-20T19:28:00.748Z,34.50
2019-06-20T19:30:38.842Z,18.70
2019-06-20T19:33:05.858Z,21.00
2019-06-20T19:35:32.648Z,20.23
2019-06-20T19:37:59.380Z,13.00
2019-06-20T19:40:31.925Z,11.80
2019-06-20T19:42:58.769Z,10.32
2019-06-20T19:45:25.677Z,6.60
2019-06-20T19:47:52.561Z,8.15
2019-06-20T19:50:19.956Z,12.35
2019-06-20T19:52:46.744Z,9.13
2019-06-20T19:55:15.150Z,9.40
2019-06-20T19:57:42.123Z,9.25
2019-06-20T20:00:10.937Z,9.35
2019-06-20T20:02:37.979Z,9.53
2019-06-20T20:05:18.534Z,8.85
2019-06-20T20:07:35.882Z,11.85
2019-06-20T20:10:05.660Z,10.95
2019-06-20T20:12:32.515Z,8.15
2019-06-20T20:14:59.504Z,9.05
2019-06-20T20:17:26.333Z,9.00
2019-06-20T20:19:53.097Z,7.58
2019-06-20T20:22:19.797Z,8.28
2019-06-20T20:24:46.491Z,8.03
2019-06-20T20:27:13.409Z,8.95
2019-06-20T20:29:40.225Z,8.73
2019-06-20T20:32:07.093Z,8.65
2019-06-20T20:34:33.818Z,8.48
2019-06-20T20:37:00.516Z,7.30
2019-06-20T20:39:27.184Z,8.25
2019-06-20T20:41:53.914Z,7.50
2019-06-20T20:44:20.566Z,7.72
2019-06-20T20:46:47.363Z,8.50
2019-06-20T20:49:14.089Z,8.03
2019-06-20T20:51:40.755Z,7.97
2019-06-20T20:54:07.534Z,8.10
2019-06-20T20:56:34.228Z,7.75
2019-06-20T20:59:01.196Z,10.10
2019-06-20T21:01:29.476Z,7.72
2019-06-20T21:03:59.084Z,8.63
2019-06-20T21:06:27.505Z,8.28
2019-06-20T21:08:54.250Z,8.20
2019-06-20T21:11:21.047Z,7.55
2019-06-20T21:13:47.722Z,8.88
2019-06-20T21:16:14.528Z,15.30
2019-06-20T21:18:41.300Z,8.18
2019-06-20T21:21:08.192Z,10.90
2019-06-20T21:23:35.034Z,8.40
2019-06-20T21:26:01.856Z,11.15
2019-06-20T21:28:28.617Z,10.53
2019-06-20T21:30:55.407Z,10.32
2019-06-20T21:33:22.152Z,11.00
2019-06-20T21:35:48.924Z,10.90
2019-06-20T21:38:15.699Z,20.55
2019-06-20T21:40:42.863Z,15.15
2019-06-20T21:43:09.737Z,15.00
2019-06-20T21:45:36.439Z,15.45
2019-06-20T21:48:03.729Z,17.85
2019-06-20T21:50:30.421Z,16.80
2019-06-20T21:52:57.092Z,20.25
2019-06-20T21:55:23.884Z,19.82
2019-06-20T21:57:50.655Z,15.85
2019-06-20T22:00:30.020Z,14.18
2019-06-20T22:02:56.715Z,15.68
2019-06-20T22:05:23.436Z,15.08
2019-06-20T22:07:50.230Z,12.98
2019-06-20T22:10:17.619Z,12.98
2019-06-20T22:12:44.399Z,11.85
2019-06-20T22:15:11.588Z,11.80
2019-06-20T22:17:38.373Z,11.63
2019-06-20T22:20:06.346Z,15.65
2019-06-20T22:22:33.241Z,12.68
2019-06-20T22:24:59.915Z,10.65
2019-06-20T22:27:26.681Z,9.45
2019-06-20T22:29:53.347Z,11.03
2019-06-20T22:32:20.298Z,8.90
2019-06-20T22:34:46.986Z,9.50
2019-06-20T22:37:13.863Z,10.72
2019-06-20T22:39:40.514Z,15.20
2019-06-20T22:42:07.366Z,12.35
2019-06-20T22:44:34.157Z,13.53
2019-06-20T22:47:00.955Z,13.45
2019-06-20T22:49:27.645Z,14.78
2019-06-20T22:51:54.306Z,12.78
2019-06-20T22:54:21.088Z,15.60
2019-06-20T22:56:47.970Z,17.15
2019-06-20T22:59:14.721Z,13.93
2019-06-20T23:01:43.426Z,13.88
2019-06-20T23:04:10.263Z,15.72
2019-06-20T23:06:37.043Z,17.20
2019-06-20T23:09:06.005Z,14.40
2019-06-20T23:11:32.700Z,15.32
2019-06-20T23:13:59.578Z,15.40
2019-06-20T23:16:26.236Z,15.30
2019-06-20T23:18:52.919Z,14.25
2019-06-20T23:21:19.586Z,13.18
2019-06-20T23:23:46.303Z,16.62
2019-06-20T23:26:13.667Z,15.25
2019-06-20T23:28:40.567Z,15.88
2019-06-20T23:31:07.658Z,17.73
2019-06-20T23:33:34.335Z,17.48
2019-06-20T23:36:01.106Z,13.88
2019-06-20T23:38:27.883Z,17.17
2019-06-20T23:40:54.560Z,15.85
2019-06-20T23:43:21.254Z,16.00
2019-06-20T23:45:47.952Z,15.25
2019-06-20T23:48:14.918Z,15.93
2019-06-20T23:50:41.669Z,13.32
2019-06-20T23:53:13.414Z,15.48
2019-06-20T23:55:40.076Z,16.93
2019-06-20T23:58:06.760Z,12.00
